createdAt,value
2023-02-09T00:01:41.721Z,-3.33
2023-02-09T00:03:44.791Z,-3.47
2023-02-09T00:05:47.549Z,-3.47
2023-02-09T00:07:50.262Z,-3.42
2023-02-09T00:09:53.582Z,-3.58
2023-02-09T00:12:13.768Z,-3.48
2023-02-09T00:14:21.728Z,-3.47
2023-02-09T00:16:27.751Z,-3.50
2023-02-09T00:18:32.287Z,-3.47
2023-02-09T00:20:35.028Z,-3.38
2023-02-09T00:22:37.660Z,-3.40
2023-02-09T00:24:40.546Z,-3.43
2023-02-09T00:26:43.665Z,-3.46
2023-02-09T00:28:46.353Z,-3.44
2023-02-09T00:30:49.084Z,-3.38
2023-02-09T00:32:53.190Z,-3.41
2023-02-09T00:34:55.761Z,-3.41
2023-02-09T00:36:58.453Z,-3.43
2023-02-09T00:39:01.572Z,-3.32
2023-02-09T00:41:04.910Z,-3.47
2023-02-09T00:43:08.604Z,-3.47
2023-02-09T00:45:11.274Z,-3.51
2023-02-09T00:47:13.928Z,-3.48
2023-02-09T00:49:17.960Z,-3.49
2023-02-09T00:51:20.701Z,-3.54
2023-02-09T00:53:23.979Z,-3.58
2023-02-09T00:55:26.651Z,-3.53
2023-02-09T00:57:29.326Z,-3.58
2023-02-09T00:59:34.468Z,-3.63
2023-02-09T01:01:38.739Z,-3.59
2023-02-09T01:03:41.704Z,-3.64
2023-02-09T01:05:45.752Z,-3.64
2023-02-09T01:07:48.423Z,-3.72
2023-02-09T01:09:51.046Z,-3.64
2023-02-09T01:11:53.915Z,-3.82
2023-02-09T01:13:58.074Z,-3.86
2023-02-09T01:16:00.696Z,-3.89
2023-02-09T01:18:03.354Z,-3.89
2023-02-09T01:20:07.598Z,-3.84
2023-02-09T01:22:12.357Z,-3.82
2023-02-09T01:24:16.352Z,-3.87
2023-02-09T01:26:19.676Z,-3.95
2023-02-09T01:28:22.485Z,-3.89
2023-02-09T01:30:25.302Z,-3.93
2023-02-09T01:32:27.963Z,-3.88
2023-02-09T01:34:30.691Z,-3.93
2023-02-09T01:36:34.567Z,-3.91
2023-02-09T01:38:38.607Z,-3.94
2023-02-09T01:40:41.302Z,-3.83
2023-02-09T01:42:43.949Z,-3.90
2023-02-09T01:45:15.566Z,-3.89
2023-02-09T01:47:20.351Z,-3.89
2023-02-09T01:49:26.294Z,-4.03
2023-02-09T01:51:29.862Z,-4.06
2023-02-09T01:53:33.859Z,-4.08
2023-02-09T01:55:41.793Z,-4.14
2023-02-09T01:57:48.861Z,-4.07
2023-02-09T01:59:55.570Z,-4.08
2023-02-09T02:01:58.233Z,-4.04
2023-02-09T02:04:00.908Z,-3.97
2023-02-09T02:06:09.952Z,-4.03
2023-02-09T02:08:20.299Z,-3.96
2023-02-09T02:10:23.110Z,-3.97
2023-02-09T02:12:27.275Z,-4.12
2023-02-09T02:14:32.237Z,-4.05
2023-02-09T02:16:49.681Z,-4.11
2023-02-09T02:19:15.314Z,-4.13
2023-02-09T02:21:56.802Z,-4.10
2023-02-09T02:24:17.856Z,-4.04
2023-02-09T02:26:45.063Z,-4.08
2023-02-09T02:29:12.911Z,-4.12
2023-02-09T02:31:51.376Z,-4.05
2023-02-09T02:34:02.370Z,-4.18
2023-02-09T02:36:10.941Z,-4.21
2023-02-09T02:38:20.847Z,-4.35
2023-02-09T02:40:34.035Z,-4.43
2023-02-09T02:42:48.928Z,-4.50
2023-02-09T02:45:00.476Z,-4.46
2023-02-09T02:47:09.990Z,-4.44
2023-02-09T02:49:19.347Z,-4.45
2023-02-09T02:51:26.471Z,-4.40
2023-02-09T02:53:33.027Z,-4.37
2023-02-09T02:55:39.078Z,-4.28
2023-02-09T02:57:46.588Z,-4.27
2023-02-09T02:59:54.632Z,-4.31
2023-02-09T03:02:01.363Z,-4.32
2023-02-09T03:04:08.029Z,-4.32
2023-02-09T03:06:12.660Z,-4.33
2023-02-09T03:08:15.572Z,-4.32
2023-02-09T03:10:30.033Z,-4.38
2023-02-09T03:12:42.797Z,-4.40
2023-02-09T03:14:58.778Z,-4.50
2023-02-09T03:20:28.256Z,-4.42
2023-02-09T03:22:36.375Z,-4.45
2023-02-09T03:24:46.235Z,-4.39
2023-02-09T03:26:52.858Z,-4.38
2023-02-09T03:28:58.711Z,-4.28
2023-02-09T03:31:01.941Z,-4.32
2023-02-09T03:33:06.157Z,-4.41
2023-02-09T03:35:12.410Z,-4.32
2023-02-09T03:37:16.589Z,-4.40
2023-02-09T03:39:19.237Z,-4.42
2023-02-09T03:41:22.110Z,-4.41
2023-02-09T03:43:45.231Z,-4.34
2023-02-09T03:45:47.895Z,-4.56
2023-02-09T03:47:50.558Z,-4.54
2023-02-09T03:49:53.235Z,-4.41
2023-02-09T03:51:56.124Z,-4.57
2023-02-09T03:54:00.061Z,-4.55
2023-02-09T03:56:02.750Z,-4.45
2023-02-09T03:58:05.442Z,-4.61
2023-02-09T04:00:09.692Z,-4.48
2023-02-09T04:02:12.378Z,-4.50
2023-02-09T04:04:15.265Z,-4.64
2023-02-09T04:06:17.935Z,-4.73
2023-02-09T04:08:20.529Z,-4.77
2023-02-09T04:10:24.437Z,-4.77
2023-02-09T04:12:27.043Z,-4.74
2023-02-09T04:14:29.684Z,-4.68
2023-02-09T04:16:32.819Z,-4.76
2023-02-09T04:18:35.584Z,-4.66
2023-02-09T04:20:38.235Z,-4.63
2023-02-09T04:22:40.992Z,-4.66
2023-02-09T04:24:43.573Z,-4.64
2023-02-09T04:26:47.586Z,-4.77
2023-02-09T04:28:50.581Z,-4.66
2023-02-09T04:30:54.814Z,-4.86
2023-02-09T04:32:57.468Z,-4.75
2023-02-09T04:35:00.091Z,-4.71
2023-02-09T04:37:02.719Z,-4.76
2023-02-09T04:39:05.437Z,-4.74
2023-02-09T04:41:08.350Z,-4.75
2023-02-09T04:43:12.468Z,-4.72
2023-02-09T04:45:15.147Z,-4.84
2023-02-09T04:47:17.820Z,-4.77
2023-02-09T04:49:20.430Z,-4.86
2023-02-09T04:51:23.061Z,-4.95
2023-02-09T04:53:26.755Z,-4.85
2023-02-09T04:55:29.431Z,-4.91
2023-02-09T04:57:46.366Z,-4.93
2023-02-09T04:59:50.303Z,-5.12
2023-02-09T05:01:53.018Z,-5.15
2023-02-09T05:03:55.743Z,-5.16
2023-02-09T05:06:00.329Z,-5.14
2023-02-09T05:08:02.901Z,-4.98
2023-02-09T05:10:06.328Z,-4.92
2023-02-09T05:12:10.090Z,-4.95
2023-02-09T05:14:12.822Z,-4.96
2023-02-09T05:16:18.412Z,-4.99
2023-02-09T05:18:22.597Z,-5.06
2023-02-09T05:20:25.253Z,-5.05
2023-02-09T05:22:28.266Z,-5.02
2023-02-09T05:24:31.025Z,-4.98
2023-02-09T05:26:33.619Z,-5.18
2023-02-09T05:28:36.297Z,-5.21
2023-02-09T05:30:38.912Z,-5.33
2023-02-09T05:32:42.925Z,-5.21
2023-02-09T05:34:45.573Z,-5.37
2023-02-09T05:36:48.703Z,-5.43
2023-02-09T05:38:51.387Z,-5.32
2023-02-09T05:40:54.080Z,-5.32
2023-02-09T05:42:55.757Z,-5.41
2023-02-09T05:44:58.453Z,-5.31
2023-02-09T05:47:01.097Z,-5.48
2023-02-09T05:49:05.064Z,-5.44
2023-02-09T05:51:07.930Z,-5.50
2023-02-09T05:53:10.779Z,-5.53
2023-02-09T05:55:13.372Z,-5.56
2023-02-09T05:57:16.063Z,-5.57
2023-02-09T05:59:19.177Z,-5.60
2023-02-09T06:01:22.139Z,-5.48
2023-02-09T06:03:24.815Z,-5.49
2023-02-09T06:05:30.009Z,-5.38
2023-02-09T06:07:32.724Z,-5.42
2023-02-09T06:09:35.368Z,-5.43
2023-02-09T06:11:38.238Z,-5.61
2023-02-09T06:13:40.949Z,-5.77
2023-02-09T06:15:43.631Z,-5.70
2023-02-09T06:17:46.408Z,-5.63
2023-02-09T06:19:49.028Z,-5.56
2023-02-09T06:21:53.046Z,-5.46
2023-02-09T06:23:55.722Z,-5.64
2023-02-09T06:25:58.402Z,-5.60
2023-02-09T06:28:02.374Z,-5.46
2023-02-09T06:30:05.950Z,-5.60
2023-02-09T06:32:08.718Z,-5.78
2023-02-09T06:34:11.513Z,-5.82
2023-02-09T06:36:14.164Z,-5.72
2023-02-09T06:38:18.192Z,-5.76
2023-02-09T06:40:21.051Z,-5.82
2023-02-09T06:42:23.900Z,-5.82
2023-02-09T06:44:26.512Z,-5.68
2023-02-09T06:46:29.562Z,-5.77
2023-02-09T06:48:32.247Z,-5.88
2023-02-09T06:50:35.449Z,-5.92
2023-02-09T06:52:38.354Z,-5.93
2023-02-09T06:54:43.881Z,-5.90
2023-02-09T06:56:47.827Z,-5.84
2023-02-09T06:58:50.448Z,-5.76
2023-02-09T07:00:53.164Z,-5.61
2023-02-09T07:02:55.996Z,-5.75
2023-02-09T07:04:58.748Z,-5.83
2023-02-09T07:07:01.328Z,-5.79
2023-02-09T07:09:03.981Z,-5.84
2023-02-09T07:11:10.264Z,-5.87
2023-02-09T07:13:12.872Z,-5.90
2023-02-09T07:15:15.920Z,-5.84
2023-02-09T07:17:18.576Z,-5.69
2023-02-09T07:19:21.205Z,-5.57
2023-02-09T07:21:23.932Z,-5.56
2023-02-09T07:23:27.039Z,-5.49
2023-02-09T07:25:29.644Z,-5.39
2023-02-09T07:27:33.625Z,-5.31
2023-02-09T07:29:36.291Z,-5.41
2023-02-09T07:31:38.982Z,-5.19
2023-02-09T07:33:41.873Z,-5.22
2023-02-09T07:35:44.434Z,-5.12
2023-02-09T07:37:47.034Z,-5.12
2023-02-09T07:39:49.889Z,-4.99
2023-02-09T07:41:52.632Z,-5.07
2023-02-09T07:43:56.932Z,-4.96
2023-02-09T07:46:03.792Z,-4.91
2023-02-09T07:48:06.428Z,-4.93
2023-02-09T07:50:09.600Z,-4.79
2023-02-09T07:52:12.726Z,-4.69
2023-02-09T07:54:16.019Z,-4.82
2023-02-09T07:56:19.103Z,-4.69
2023-02-09T07:58:22.187Z,-4.58
2023-02-09T08:00:26.526Z,-4.50
2023-02-09T08:02:35.050Z,-4.34
2023-02-09T08:04:37.848Z,-3.99
2023-02-09T08:06:44.991Z,-4.05
2023-02-09T08:08:47.944Z,-3.85
2023-02-09T08:10:51.290Z,-3.68
2023-02-09T08:13:03.775Z,-3.90
2023-02-09T08:15:07.325Z,-3.52
2023-02-09T08:17:25.844Z,-2.80
2023-02-09T08:19:29.594Z,-2.68
2023-02-09T08:21:36.895Z,-3.24
2023-02-09T08:23:44.873Z,-3.49
2023-02-09T08:25:51.319Z,-3.22
2023-02-09T08:27:54.790Z,-2.86
2023-02-09T08:29:59.047Z,-2.27
2023-02-09T08:32:01.762Z,-2.16
2023-02-09T08:34:05.754Z,-2.10
2023-02-09T08:36:08.864Z,-2.43
2023-02-09T08:38:11.549Z,-2.45
2023-02-09T08:40:15.695Z,-2.00
2023-02-09T08:42:18.464Z,-2.18
2023-02-09T08:44:21.112Z,-2.50
2023-02-09T08:46:23.861Z,-1.67
2023-02-09T08:48:26.608Z,-1.44
2023-02-09T08:50:30.610Z,-1.43
2023-02-09T08:52:33.237Z,0.12
2023-02-09T08:54:36.174Z,-0.39
2023-02-09T08:56:39.163Z,-1.33
2023-02-09T08:58:41.830Z,-1.57
2023-02-09T09:00:44.705Z,-0.90
2023-02-09T09:02:47.417Z,-0.82
2023-02-09T09:04:50.310Z,-0.56
2023-02-09T09:06:55.440Z,-1.01
2023-02-09T09:08:58.244Z,-0.75
2023-02-09T09:11:01.348Z,-0.81
2023-02-09T09:13:04.223Z,-1.13
2023-02-09T09:15:07.457Z,-0.52
2023-02-09T09:17:10.574Z,0.22
2023-02-09T09:19:13.574Z,1.44
2023-02-09T09:21:18.775Z,2.35
2023-02-09T09:23:23.397Z,0.77
2023-02-09T09:25:26.522Z,0.58
2023-02-09T09:27:29.429Z,2.76
2023-02-09T09:29:34.138Z,3.35
2023-02-09T09:31:38.020Z,4.35
2023-02-09T09:33:41.764Z,3.49
2023-02-09T09:35:44.824Z,1.99
2023-02-09T09:37:47.602Z,3.71
2023-02-09T09:39:52.547Z,4.21
2023-02-09T09:41:59.665Z,4.91
2023-02-09T09:44:04.114Z,3.99
2023-02-09T09:46:08.841Z,2.93
2023-02-09T09:48:23.059Z,3.38
2023-02-09T09:50:28.447Z,1.64
2023-02-09T09:52:33.589Z,3.45
2023-02-09T09:54:38.070Z,5.64
2023-02-09T09:56:42.134Z,1.70
2023-02-09T09:58:45.717Z,2.40
2023-02-09T10:00:49.897Z,3.18
2023-02-09T10:02:53.376Z,3.48
2023-02-09T10:05:00.447Z,3.03
2023-02-09T10:07:15.408Z,1.68
2023-02-09T10:09:29.360Z,0.75
2023-02-09T10:11:39.441Z,0.79
2023-02-09T10:13:48.916Z,0.40
2023-02-09T10:15:53.131Z,0.91
2023-02-09T10:17:56.453Z,0.51
2023-02-09T10:20:03.750Z,0.75
2023-02-09T10:22:13.011Z,0.77
2023-02-09T10:24:21.569Z,0.88
2023-02-09T10:26:26.824Z,1.81
2023-02-09T10:28:32.056Z,1.31
2023-02-09T10:30:36.151Z,2.00
2023-02-09T10:32:44.198Z,2.53
2023-02-09T10:34:49.578Z,1.65
2023-02-09T10:36:54.676Z,1.85
2023-02-09T10:39:16.500Z,1.64
2023-02-09T10:41:20.066Z,1.59
2023-02-09T10:43:26.993Z,0.85
2023-02-09T10:45:33.083Z,0.79
2023-02-09T10:47:37.071Z,1.17
2023-02-09T10:49:40.870Z,2.61
2023-02-09T10:51:43.559Z,2.20
2023-02-09T10:54:01.390Z,2.55
2023-02-09T10:56:07.174Z,1.91
2023-02-09T10:58:22.625Z,1.42
2023-02-09T11:00:32.964Z,2.24
2023-02-09T11:02:41.136Z,2.15
2023-02-09T11:04:44.906Z,2.24
2023-02-09T11:06:52.001Z,1.98
2023-02-09T11:09:00.732Z,1.78
2023-02-09T11:11:06.821Z,1.90
2023-02-09T11:13:20.963Z,1.44
2023-02-09T11:15:27.986Z,1.67
2023-02-09T11:17:36.687Z,1.69
2023-02-09T11:20:09.812Z,1.42
2023-02-09T11:22:14.158Z,1.63
2023-02-09T11:24:26.337Z,1.74
2023-02-09T11:26:39.074Z,1.90
2023-02-09T11:28:49.315Z,1.65
2023-02-09T11:31:06.382Z,1.93
2023-02-09T11:33:16.563Z,1.99
2023-02-09T11:35:23.216Z,2.08
2023-02-09T11:37:36.081Z,2.19
2023-02-09T11:39:44.196Z,1.91
2023-02-09T11:42:09.606Z,1.95
2023-02-09T11:44:19.192Z,1.84
2023-02-09T11:46:25.400Z,1.90
2023-02-09T11:48:31.389Z,1.87
2023-02-09T11:50:41.978Z,1.93
2023-02-09T11:52:52.267Z,2.29
2023-02-09T11:55:01.338Z,2.51
2023-02-09T11:57:16.221Z,2.40
2023-02-09T11:59:28.302Z,1.55
2023-02-09T12:01:42.165Z,2.02
2023-02-09T12:03:54.724Z,2.07
2023-02-09T12:05:58.767Z,2.22
2023-02-09T12:08:18.764Z,2.66
2023-02-09T12:10:30.810Z,2.76
2023-02-09T12:12:41.464Z,2.62
2023-02-09T12:15:01.579Z,2.21
2023-02-09T12:17:12.747Z,2.97
2023-02-09T12:19:26.986Z,2.74
2023-02-09T12:21:33.833Z,2.84
2023-02-09T12:23:37.807Z,3.09
2023-02-09T12:25:55.268Z,3.12
2023-02-09T12:28:37.730Z,2.90
2023-02-09T12:31:01.253Z,2.97
2023-02-09T12:33:17.445Z,2.95
2023-02-09T12:35:29.268Z,2.91
2023-02-09T12:37:33.253Z,3.31
2023-02-09T12:39:36.103Z,3.17
2023-02-09T12:42:15.386Z,2.59
2023-02-09T12:44:38.627Z,3.14
2023-02-09T12:46:51.765Z,3.26
2023-02-09T12:49:09.842Z,3.46
2023-02-09T12:51:40.117Z,3.49
2023-02-09T12:53:48.951Z,3.67
2023-02-09T12:56:03.804Z,3.85
2023-02-09T12:58:40.573Z,5.42
2023-02-09T13:00:54.731Z,5.14
2023-02-09T13:02:57.636Z,5.60
2023-02-09T13:05:04.791Z,5.13
2023-02-09T13:07:15.125Z,6.22
2023-02-09T13:09:27.280Z,4.65
2023-02-09T13:11:38.701Z,5.61
2023-02-09T13:13:48.940Z,5.78
2023-02-09T13:16:09.069Z,5.33
2023-02-09T13:18:20.968Z,5.96
2023-02-09T13:20:37.213Z,4.39
2023-02-09T13:23:01.659Z,4.44
2023-02-09T13:25:18.541Z,5.78
2023-02-09T13:27:23.292Z,5.81
2023-02-09T13:29:28.515Z,6.18
2023-02-09T13:31:36.408Z,4.24
2023-02-09T13:33:50.218Z,4.83
2023-02-09T13:36:08.936Z,5.86
2023-02-09T13:38:17.644Z,5.13
2023-02-09T13:40:25.384Z,6.29
2023-02-09T13:42:30.174Z,5.67
2023-02-09T13:44:35.302Z,4.96
2023-02-09T13:46:39.391Z,4.99
2023-02-09T13:48:42.120Z,4.53
2023-02-09T13:50:48.559Z,4.71
2023-02-09T13:52:51.843Z,5.48
2023-02-09T13:54:55.299Z,4.67
2023-02-09T13:57:01.719Z,4.67
2023-02-09T13:59:05.304Z,4.61
2023-02-09T14:01:14.156Z,4.00
2023-02-09T14:03:21.184Z,3.99
2023-02-09T14:05:33.160Z,3.88
2023-02-09T14:07:38.033Z,3.29
2023-02-09T14:09:46.771Z,3.72
2023-02-09T14:11:53.539Z,3.55
2023-02-09T14:14:02.496Z,3.79
2023-02-09T14:16:07.179Z,3.30
2023-02-09T14:18:29.421Z,3.53
2023-02-09T14:20:32.143Z,3.40
2023-02-09T14:22:36.445Z,3.38
2023-02-09T14:24:44.536Z,3.08
2023-02-09T14:26:50.953Z,3.12
2023-02-09T14:29:06.820Z,3.34
2023-02-09T14:31:19.693Z,3.12
2023-02-09T14:33:25.382Z,2.97
2023-02-09T14:35:29.951Z,2.84
2023-02-09T14:37:32.577Z,2.86
2023-02-09T14:39:35.201Z,2.85
2023-02-09T14:41:38.089Z,3.12
2023-02-09T14:43:40.923Z,2.90
2023-02-09T14:45:47.673Z,2.95
2023-02-09T14:47:50.826Z,2.97
2023-02-09T14:49:53.468Z,3.32
2023-02-09T14:52:04.362Z,3.44
2023-02-09T14:54:19.333Z,3.12
2023-02-09T14:56:28.291Z,3.33
2023-02-09T14:58:33.250Z,2.99
2023-02-09T15:00:35.921Z,3.06
2023-02-09T15:02:40.028Z,2.93
2023-02-09T15:04:42.703Z,3.03
2023-02-09T15:06:48.224Z,2.75
2023-02-09T15:08:51.017Z,3.03
2023-02-09T15:10:56.236Z,3.02
2023-02-09T15:12:59.513Z,2.82
2023-02-09T15:15:03.275Z,3.09
2023-02-09T15:17:14.851Z,3.07
2023-02-09T15:19:22.186Z,3.00
2023-02-09T15:21:25.054Z,2.93
2023-02-09T15:23:27.867Z,2.84
2023-02-09T15:25:30.808Z,2.66
2023-02-09T15:27:35.274Z,2.63
2023-02-09T15:29:38.011Z,2.59
2023-02-09T15:31:41.171Z,2.69
2023-02-09T15:33:44.077Z,2.64
2023-02-09T15:35:49.045Z,2.71
2023-02-09T15:37:55.085Z,2.55
2023-02-09T15:40:02.662Z,2.53
2023-02-09T15:42:31.322Z,2.48
2023-02-09T15:44:51.600Z,2.43
2023-02-09T15:47:12.013Z,2.37
2023-02-09T15:49:14.670Z,2.34
2023-02-09T15:51:18.746Z,2.32
2023-02-09T15:53:22.024Z,2.26
2023-02-09T15:55:26.370Z,2.23
2023-02-09T15:57:29.222Z,2.17
2023-02-09T15:59:31.900Z,2.06
2023-02-09T16:01:35.287Z,2.15
2023-02-09T16:03:38.027Z,2.08
2023-02-09T16:05:40.684Z,2.01
2023-02-09T16:07:45.047Z,2.01
2023-02-09T16:09:47.748Z,2.05
2023-02-09T16:11:50.570Z,1.97
2023-02-09T16:13:53.613Z,1.97
2023-02-09T16:16:05.133Z,1.92
2023-02-09T16:18:14.587Z,1.86
2023-02-09T16:20:17.958Z,1.78
2023-02-09T16:22:23.416Z,1.72
2023-02-09T16:24:32.396Z,1.68
2023-02-09T16:26:35.745Z,1.67
2023-02-09T16:28:38.465Z,1.63
2023-02-09T16:30:50.549Z,1.54
2023-02-09T16:32:53.488Z,1.59
2023-02-09T16:35:04.496Z,1.57
2023-02-09T16:37:16.213Z,1.49
2023-02-09T16:39:20.829Z,1.39
2023-02-09T16:41:42.356Z,1.31
2023-02-09T16:43:45.264Z,1.24
2023-02-09T16:46:02.434Z,0.97
2023-02-09T16:48:06.382Z,1.01
2023-02-09T16:50:22.585Z,1.02
2023-02-09T16:52:26.047Z,1.05
2023-02-09T16:54:30.048Z,1.06
2023-02-09T16:56:35.918Z,1.02
2023-02-09T16:58:40.185Z,1.02
2023-02-09T17:00:45.292Z,0.99
2023-02-09T17:02:52.651Z,0.88
2023-02-09T17:04:55.426Z,0.82
2023-02-09T17:06:58.067Z,0.74
2023-02-09T17:09:00.842Z,0.74
2023-02-09T17:11:05.687Z,0.68
2023-02-09T17:13:10.842Z,0.71
2023-02-09T17:15:28.965Z,0.60
2023-02-09T17:17:32.585Z,0.60
2023-02-09T17:19:46.922Z,0.61
2023-02-09T17:21:50.344Z,0.57
2023-02-09T17:23:53.619Z,0.60
2023-02-09T17:25:56.395Z,0.57
2023-02-09T17:27:59.237Z,0.51
2023-02-09T17:30:04.023Z,0.51
2023-02-09T17:32:06.977Z,0.47
2023-02-09T17:34:14.125Z,0.46
2023-02-09T17:36:32.733Z,0.40
2023-02-09T17:38:37.236Z,0.47
2023-02-09T17:40:39.976Z,0.44
2023-02-09T17:42:43.088Z,0.40
2023-02-09T17:44:46.864Z,0.43
2023-02-09T17:46:51.140Z,0.41
2023-02-09T17:48:53.823Z,0.33
2023-02-09T17:51:00.164Z,0.34
2023-02-09T17:53:02.804Z,0.29
2023-02-09T17:55:05.862Z,0.31
2023-02-09T17:57:10.110Z,0.30
2023-02-09T17:59:13.429Z,0.28
2023-02-09T18:01:26.404Z,0.33
2023-02-09T18:03:30.753Z,0.32
2023-02-09T18:05:35.912Z,0.27
2023-02-09T18:07:38.680Z,0.20
2023-02-09T18:09:41.303Z,0.16
2023-02-09T18:12:02.023Z,0.11
2023-02-09T18:14:04.843Z,0.11
2023-02-09T18:16:07.843Z,0.10
2023-02-09T18:18:10.609Z,0.10
2023-02-09T18:20:18.789Z,0.17
2023-02-09T18:22:21.412Z,0.08
2023-02-09T18:24:26.997Z,-0.02
2023-02-09T18:26:29.667Z,-0.07
2023-02-09T18:28:32.490Z,-0.08
2023-02-09T18:30:37.212Z,-0.10
2023-02-09T18:32:39.855Z,-0.14
2023-02-09T18:34:42.546Z,-0.16
2023-02-09T18:36:46.516Z,-0.31
2023-02-09T18:38:50.936Z,-0.31
2023-02-09T18:40:53.604Z,-0.38
2023-02-09T18:42:56.422Z,-0.36
2023-02-09T18:44:59.117Z,-0.32
2023-02-09T18:47:01.925Z,-0.52
2023-02-09T18:49:05.018Z,-0.56
2023-02-09T18:51:08.062Z,-0.65
2023-02-09T18:53:12.955Z,-0.53
2023-02-09T18:55:15.899Z,-0.48
2023-02-09T18:57:18.756Z,-0.50
2023-02-09T18:59:21.449Z,-0.51
2023-02-09T19:01:25.204Z,-0.56
2023-02-09T19:03:27.884Z,-0.57
2023-02-09T19:05:32.933Z,-0.62
2023-02-09T19:07:36.734Z,-0.69
2023-02-09T19:09:42.874Z,-0.68
2023-02-09T19:11:45.540Z,-0.59
2023-02-09T19:14:08.718Z,-0.65
2023-02-09T19:16:12.734Z,-0.71
2023-02-09T19:18:15.469Z,-0.66
2023-02-09T19:20:20.458Z,-0.68
2023-02-09T19:22:23.542Z,-0.66
2023-02-09T19:24:26.206Z,-0.69
2023-02-09T19:26:30.173Z,-0.68
2023-02-09T19:28:35.114Z,-0.60
2023-02-09T19:30:37.954Z,-0.66
2023-02-09T19:32:40.627Z,-0.66
2023-02-09T19:34:45.833Z,-0.60
2023-02-09T19:36:48.778Z,-0.77
2023-02-09T19:38:51.477Z,-0.74
2023-02-09T19:41:09.738Z,-0.76
2023-02-09T19:43:14.676Z,-0.76
2023-02-09T19:45:17.424Z,-0.79
2023-02-09T19:47:25.530Z,-0.81
2023-02-09T19:49:29.218Z,-0.80
2023-02-09T19:51:32.212Z,-0.79
2023-02-09T19:53:35.166Z,-0.80
2023-02-09T19:55:37.830Z,-0.81
2023-02-09T19:57:42.371Z,-0.90
2023-02-09T19:59:46.532Z,-0.90
2023-02-09T20:01:49.693Z,-1.00
2023-02-09T20:03:52.437Z,-0.87
2023-02-09T20:05:55.517Z,-0.96
2023-02-09T20:07:58.431Z,-0.83
2023-02-09T20:10:01.109Z,-0.85
2023-02-09T20:12:03.908Z,-0.89
2023-02-09T20:14:06.761Z,-0.90
2023-02-09T20:16:12.794Z,-0.86
2023-02-09T20:18:17.609Z,-0.92
2023-02-09T20:20:21.008Z,-0.95
2023-02-09T20:22:23.791Z,-0.98
2023-02-09T20:24:26.599Z,-0.90
2023-02-09T20:26:33.001Z,-0.70
2023-02-09T20:28:35.671Z,-0.56
2023-02-09T20:30:41.543Z,-0.62
2023-02-09T20:32:45.580Z,-0.82
2023-02-09T20:34:48.221Z,-0.94
2023-02-09T20:36:50.875Z,-0.95
2023-02-09T20:38:53.944Z,-0.91
2023-02-09T20:40:56.709Z,-0.91
2023-02-09T20:43:16.807Z,-0.97
2023-02-09T20:45:37.171Z,-0.91
2023-02-09T20:47:39.852Z,-0.95
2023-02-09T20:49:44.208Z,-1.16
2023-02-09T20:51:47.091Z,-1.10
2023-02-09T20:53:49.670Z,-1.02
2023-02-09T20:55:52.373Z,-0.78
2023-02-09T20:57:54.976Z,-0.77
2023-02-09T20:59:58.408Z,-0.85
2023-02-09T21:02:01.109Z,-0.86
2023-02-09T21:04:05.094Z,-0.93
2023-02-09T21:06:10.102Z,-0.89
2023-02-09T21:08:12.771Z,-0.95
2023-02-09T21:10:16.014Z,-1.03
2023-02-09T21:12:18.912Z,-1.18
2023-02-09T21:14:27.872Z,-1.26
2023-02-09T21:16:36.516Z,-1.24
2023-02-09T21:18:40.206Z,-1.23
2023-02-09T21:20:42.996Z,-1.29
2023-02-09T21:22:46.984Z,-1.20
2023-02-09T21:24:49.684Z,-1.30
2023-02-09T21:26:52.732Z,-1.33
2023-02-09T21:28:56.488Z,-1.27
2023-02-09T21:30:59.569Z,-1.28
2023-02-09T21:33:02.568Z,-1.42
2023-02-09T21:35:10.053Z,-1.39
2023-02-09T21:37:14.058Z,-1.35
2023-02-09T21:39:18.230Z,-1.34
2023-02-09T21:41:40.400Z,-1.37
2023-02-09T21:43:43.381Z,-1.30
2023-02-09T21:45:46.132Z,-1.36
2023-02-09T21:47:48.855Z,-1.34
2023-02-09T21:49:51.700Z,-1.33
2023-02-09T21:51:54.411Z,-1.29
2023-02-09T21:53:57.776Z,-1.29
2023-02-09T21:56:01.859Z,-1.36
2023-02-09T21:58:04.671Z,-1.35
2023-02-09T22:00:09.732Z,-1.21
2023-02-09T22:02:14.217Z,-1.26
2023-02-09T22:04:17.041Z,-1.31
2023-02-09T22:06:19.893Z,-1.16
2023-02-09T22:08:22.591Z,-1.25
2023-02-09T22:10:25.234Z,-1.32
2023-02-09T22:12:29.993Z,-1.35
2023-02-09T22:14:32.871Z,-1.39
2023-02-09T22:16:35.589Z,-1.39
2023-02-09T22:18:38.457Z,-1.32
2023-02-09T22:20:41.483Z,-1.30
2023-02-09T22:22:46.001Z,-1.37
2023-02-09T22:24:48.793Z,-1.36
2023-02-09T22:26:51.605Z,-1.35
2023-02-09T22:28:55.607Z,-1.39
2023-02-09T22:30:58.541Z,-1.42
2023-02-09T22:33:02.000Z,-1.39
2023-02-09T22:35:04.704Z,-1.40
2023-02-09T22:37:07.595Z,-1.34
2023-02-09T22:39:10.394Z,-1.37
2023-02-09T22:41:21.429Z,-1.38
2023-02-09T22:43:24.301Z,-1.38
2023-02-09T22:45:28.442Z,-1.39
2023-02-09T22:47:31.162Z,-1.34
2023-02-09T22:49:34.095Z,-1.36
2023-02-09T22:51:37.606Z,-1.35
2023-02-09T22:53:40.333Z,-1.34
2023-02-09T22:55:46.340Z,-1.36
2023-02-09T22:57:49.180Z,-1.36
2023-02-09T22:59:52.192Z,-1.30
2023-02-09T23:01:56.320Z,-1.35
2023-02-09T23:03:59.699Z,-1.31
2023-02-09T23:06:03.455Z,-1.34
2023-02-09T23:08:08.692Z,-1.28
2023-02-09T23:10:11.340Z,-1.23
2023-02-09T23:12:14.182Z,-1.26
2023-02-09T23:14:16.860Z,-1.30
2023-02-09T23:16:21.589Z,-1.28
2023-02-09T23:18:25.721Z,-1.29
2023-02-09T23:20:28.494Z,-1.30
2023-02-09T23:22:31.809Z,-1.25
2023-02-09T23:24:34.546Z,-1.28
2023-02-09T23:26:38.177Z,-1.35
2023-02-09T23:28:40.966Z,-1.15
2023-02-09T23:30:45.030Z,-1.22
2023-02-09T23:32:49.233Z,-1.17
2023-02-09T23:34:53.360Z,-1.16
2023-02-09T23:36:57.377Z,-1.27
2023-02-09T23:39:04.953Z,-1.31
2023-02-09T23:41:08.495Z,-1.27
2023-02-09T23:43:11.213Z,-1.31
2023-02-09T23:45:14.002Z,-1.28
2023-02-09T23:47:16.696Z,-1.29
2023-02-09T23:49:19.457Z,-1.31
2023-02-09T23:51:26.554Z,-1.20
2023-02-09T23:53:29.542Z,-1.15
2023-02-09T23:55:32.256Z,-1.23
2023-02-09T23:57:34.890Z,-1.35
2023-02-09T23:59:37.498Z,-1.36
